KTDF

Person County Airport

Roxboro, North Carolina, USA
METAR KTDF 220535Z AUTO 00000KT 10SM SCT090 SCT110 21/21 A2981 RMK AO2 P0001
Observed Flight Rules
Jun-22 @ 05:35 UTC (10 minutes ago) Visual Flight Rules
Visibility Clouds
10 miles
  • Scattered at 9,000' AGL
  • Scattered at 11,000' AGL
Temperatures Readings Precipitation
Current 21°C / 70°F
Dewpoint 21°C / 70°F
Humidity 100%
Altimeter 29.81" Hg
Pressure 1009 hPa
Elevation 186
Current Rain 0.01
METAR KTDF 220535Z AUTO 00000KT 10SM SCT090 SCT110 21/21 A2981 RMK AO2 P0001
Observed Flight Rules
Jun-22 @ 05:35 UTC
(10 minutes ago)
VFR
Clouds
  • Scattered at 9,000' AGL
  • Scattered at 11,000' AGL
Temperature Dewpoint
21°C / 70°F 21°C / 70°F
Humidity Altimeter Pressure
100% 29.81" Hg 1009 hPa
Current Rain
0.01